METAR Data
IDs: Format: Raw Decoded Include TAF

Data at: 0510 UTC 26 Sep 2018

K06D 260455Z AUTO 28006KT 10SM OVC070 04/03 A3003 RMK AO2
K06D 260435Z AUTO 29006KT 10SM BKN070 04/04 A3003 RMK AO2
K06D 260415Z AUTO 30007KT 10SM CLR 04/03 A3003 RMK AO2
K06D 260355Z AUTO 30007KT 10SM CLR 04/04 A3003 RMK AO2
K06D 260335Z AUTO 29007KT 10SM SCT080 05/04 A3003 RMK AO2
K06D 260315Z AUTO 30007KT 10SM SCT075 05/05 A3003 RMK AO2
K06D 260255Z AUTO 31008KT 10SM FEW060 BKN075 06/05 A3002 RMK AO2
K06D 260235Z AUTO 30007KT 10SM FEW055 SCT065 BKN075 06/06 A3002 RMK AO2
K06D 260215Z AUTO 30006KT 10SM SCT065 OVC080 05/05 A3002 RMK AO2
K06D 260155Z AUTO 30006KT 10SM FEW055 BKN065 OVC080 05/05 A3002 RMK AO2
K06D 260135Z AUTO 30006KT 10SM SCT055 BKN075 BKN095 05/05 A3001 RMK AO2
K06D 260115Z AUTO 30006KT 10SM FEW016 SCT033 OVC075 06/06 A3001 RMK AO2
K06D 260055Z AUTO 33006G16KT 4SM -RA FEW014 SCT023 BKN031 07/06 A3001 RMK AO2
K06D 260035Z AUTO 31007KT 10SM FEW031 SCT060 BKN075 07/06 A3000 RMK AO2
K06D 260015Z AUTO 31006KT 10SM BKN110 08/06 A2999 RMK AO2
K06D 252355Z AUTO 30005KT 10SM BKN100 09/06 A2998 RMK AO2
K06D 252335Z AUTO 32004KT 10SM FEW060 FEW070 SCT085 08/07 A2998 RMK AO2
K06D 252315Z AUTO 28007KT 10SM -RA FEW039 SCT055 BKN065 08/06 A2998 RMK AO2
K06D 252255Z AUTO 31013G19KT 10SM -RA FEW040 OVC060 08/06 A2998 RMK AO2
K06D 252235Z AUTO 32014G25KT 10SM OVC060 09/04 A2998 RMK AO2
K06D 252215Z AUTO 33018G29KT 10SM SCT060 OVC080 10/03 A2997 RMK AO2
K06D 252155Z AUTO 29008KT 10SM BKN070 12/M01 A2995 RMK AO2
K06D 252135Z AUTO 30007G13KT 10SM SCT075 SCT090 13/M01 A2995 RMK AO2
K06D 252115Z AUTO 30006KT 10SM FEW090 14/M01 A2995 RMK AO2
K06D 252055Z AUTO VRB06KT 10SM SCT075 SCT090 13/00 A2995 RMK AO2
K06D 252035Z AUTO 30006KT 10SM FEW065 BKN075 13/01 A2995 RMK AO2
K06D 252015Z AUTO 33008G14KT 10SM FEW065 BKN080 OVC090 13/00 A2995 RMK AO2
K06D 251955Z AUTO 35009KT 10SM SCT065 OVC090 14/01 A2996 RMK AO2
K06D 251935Z AUTO 29010KT 260V340 10SM FEW055 BKN090 14/M00 A2996 RMK AO2
K06D 251915Z AUTO 28008KT 10SM FEW047 FEW055 13/00 A2996 RMK AO2
K06D 251855Z AUTO VRB05KT 10SM FEW045 13/02 A2996 RMK AO2
K06D 251835Z AUTO 33005G11KT 10SM FEW043 12/01 A2997 RMK AO2
K06D 251815Z AUTO VRB03KT 10SM CLR 11/01 A2997 RMK AO2
K06D 251755Z AUTO 24006KT 10SM CLR 11/01 A2997 RMK AO2
K06D 251735Z AUTO 00000KT 10SM CLR 11/01 A2997 RMK AO2
K06D 251715Z AUTO VRB04KT 10SM CLR 10/01 A2997 RMK AO2
K06D 251655Z AUTO 31003KT 10SM CLR 10/01 A2998 RMK AO2
K06D 251635Z AUTO 00000KT 10SM CLR 09/01 A2998 RMK AO2
K06D 251615Z AUTO 00000KT 10SM CLR 08/01 A2999 RMK AO2
K06D 251555Z AUTO VRB03KT 10SM CLR 07/01 A2999 RMK AO2
K06D 251535Z AUTO VRB04KT 10SM CLR 07/01 A2999 RMK AO2
K06D 251515Z AUTO 00000KT 10SM CLR 07/00 A2999 RMK AO2
K06D 251455Z AUTO 30004KT 10SM CLR 06/M00 A2999 RMK AO2
K06D 251435Z AUTO VRB04KT 10SM CLR 06/00 A2999 RMK AO2
K06D 251415Z AUTO 00000KT 10SM CLR 05/00 A3000 RMK AO2
K06D 251355Z AUTO 00000KT 10SM CLR 03/02 A2999 RMK AO2
K06D 251335Z AUTO 00000KT 10SM CLR 02/01 A2998 RMK AO2
K06D 251315Z AUTO 32004KT 10SM CLR 01/01 A2997 RMK AO2
K06D 251255Z AUTO 32006KT 10SM CLR M00/M00 A2997 RMK AO2
K06D 251235Z AUTO 31004KT 10SM SCT024 00/00 A2998 RMK AO2
K06D 251215Z AUTO 32006KT 10SM OVC024 02/01 A2998 RMK AO2
K06D 251155Z AUTO 32007KT 10SM OVC024 02/01 A2997 RMK AO2
K06D 251135Z AUTO 29004KT 10SM OVC024 01/01 A2998 RMK AO2
K06D 251115Z AUTO 25005KT 10SM OVC026 01/01 A2998 RMK AO2
K06D 251055Z AUTO 21006KT 10SM OVC026 01/01 A2999 RMK AO2
K06D 251035Z AUTO 25006KT 10SM BKN027 M00/M00 A2997 RMK AO2
K06D 251015Z AUTO 28006KT 10SM OVC027 01/00 A2996 RMK AO2
K06D 250955Z AUTO 29007KT 10SM OVC026 02/00 A2996 RMK AO2
K06D 250935Z AUTO 29006KT 10SM OVC024 03/01 A2996 RMK AO2
K06D 250915Z AUTO 29006KT 10SM SCT019 OVC025 03/01 A2996 RMK AO2
K06D 250855Z AUTO 31007KT 10SM OVC020 04/03 A2996 RMK AO2
K06D 250835Z AUTO 31005KT 10SM SCT021 BKN026 03/03 A2996 RMK AO2
K06D 250815Z AUTO 28005KT 10SM BKN027 02/02 A2997 RMK AO2
K06D 250735Z AUTO 32007KT 10SM OVC029 04/03 A2997 RMK AO2
K06D 250715Z AUTO 31005KT 10SM OVC026 04/03 A2997 RMK AO2
K06D 250655Z AUTO 31006KT 10SM OVC025 04/03 A2997 RMK AO2
K06D 250635Z AUTO 32006KT 10SM OVC025 04/03 A2997 RMK AO2
K06D 250615Z AUTO 33007KT 10SM BKN014 OVC026 04/04 A2997 RMK AO2
K06D 250555Z AUTO 34007KT 10SM OVC014 04/04 A2997 RMK AO2
K06D 250515Z AUTO 34007KT 10SM OVC017 05/04 A2997 RMK AO2
K06D 250455Z AUTO 34006KT 10SM BKN016 BKN020 OVC033 05/05 A2997 RMK AO2
K06D 250435Z AUTO 34006KT 10SM SCT033 BKN095 OVC120 05/05 A2996 RMK AO2
K06D 250415Z AUTO 35006KT 10SM FEW020 BKN110 04/04 A2996 RMK AO2
K06D 250355Z AUTO 35006KT 10SM FEW020 FEW120 04/04 A2995 RMK AO2
K06D 250335Z AUTO 34006KT 10SM SCT022 BKN037 04/04 A2995 RMK AO2
K06D 250315Z AUTO 33005KT 10SM SCT023 OVC037 05/04 A2995 RMK AO2
K06D 250255Z AUTO 34008G14KT 10SM BKN023 SCT028 OVC037 06/04 A2994 RMK AO2
K06D 250235Z AUTO 33010KT 10SM BKN023 OVC036 07/04 A2995 RMK AO2
K06D 250215Z AUTO 34008KT 10SM BKN024 OVC035 07/05 A2994 RMK AO2
K06D 250155Z AUTO 34009KT 10SM SCT022 BKN030 OVC034 07/05 A2993 RMK AO2
K06D 250135Z AUTO 33006KT 10SM FEW020 BKN027 OVC032 08/05 A2992 RMK AO2
K06D 250115Z AUTO 31007KT 10SM FEW024 OVC032 08/05 A2992 RMK AO2
K06D 250055Z AUTO 29005KT 10SM OVC029 08/05 A2991 RMK AO2
K06D 250035Z AUTO 27004KT 10SM OVC029 08/05 A2992 RMK AO2
K06D 250015Z AUTO 28004KT 10SM OVC033 08/05 A2991 RMK AO2
K06D 242355Z AUTO 28006KT 10SM OVC034 08/05 A2991 RMK AO2
K06D 242335Z AUTO 30006G13KT 10SM OVC035 08/05 A2991 RMK AO2
K06D 242315Z AUTO 30009KT 10SM OVC035 09/05 A2990 RMK AO2
K06D 242255Z AUTO 30007G13KT 10SM FEW019 OVC036 09/06 A2990 RMK AO2
K06D 242235Z AUTO 29011KT 10SM BKN020 BKN025 OVC037 09/06 A2989 RMK AO2
K06D 242215Z AUTO 32011KT 10SM BKN020 BKN026 OVC038 09/06 A2989 RMK AO2
K06D 242155Z AUTO 32009KT 10SM BKN021 BKN026 OVC038 10/06 A2987 RMK AO2
K06D 242135Z AUTO 34009KT 10SM BKN019 BKN026 OVC040 10/06 A2987 RMK AO2
K06D 242115Z AUTO 30009KT 10SM SCT019 OVC042 10/06 A2986 RMK AO2
K06D 242055Z AUTO 30009KT 10SM OVC043 10/06 A2986 RMK AO2
K06D 242035Z AUTO 31009KT 10SM OVC043 10/06 A2986 RMK AO2
K06D 242015Z AUTO 29007G12KT 10SM FEW015 OVC042 10/07 A2986 RMK AO2
K06D 241955Z AUTO 28008KT 10SM BKN015 OVC043 10/07 A2986 RMK AO2
K06D 241935Z AUTO 28009KT 10SM OVC014 10/07 A2986 RMK AO2
K06D 241915Z AUTO 30008KT 10SM OVC013 10/07 A2987 RMK AO2
K06D 241855Z AUTO 30005G11KT 10SM OVC013 09/07 A2987 RMK AO2
K06D 241835Z AUTO 29005KT 10SM OVC013 09/07 A2987 RMK AO2
K06D 241815Z AUTO 29006KT 10SM OVC012 08/07 A2987 RMK AO2
K06D 241755Z AUTO 30006G11KT 10SM BKN009 OVC012 07/07 A2987 RMK AO2
K06D 241735Z AUTO 31006KT 10SM OVC008 07/07 A2987 RMK AO2
K06D 241715Z AUTO 33006KT 10SM OVC008 07/07 A2987 RMK AO2